sensor_id;sensor_type;location;lat;lon;timestamp;temperature;humidity
20315;DHT22;10315;50.958;13.080;2023-08-08T00:09:46;11.10;99.90
20315;DHT22;10315;50.958;13.080;2023-08-08T00:19:48;10.90;99.90
20315;DHT22;10315;50.958;13.080;2023-08-08T00:29:51;10.90;99.90
20315;DHT22;10315;50.958;13.080;2023-08-08T00:39:54;11.00;99.90
20315;DHT22;10315;50.958;13.080;2023-08-08T00:49:57;10.90;99.90
20315;DHT22;10315;50.958;13.080;2023-08-08T00:59:58;10.90;99.90
20315;DHT22;10315;50.958;13.080;2023-08-08T01:10:05;10.70;99.90
20315;DHT22;10315;50.958;13.080;2023-08-08T01:20:10;10.70;99.90
20315;DHT22;10315;50.958;13.080;2023-08-08T01:30:15;10.50;99.90
20315;DHT22;10315;50.958;13.080;2023-08-08T01:40:18;10.40;99.90
20315;DHT22;10315;50.958;13.080;2023-08-08T01:50:21;10.20;99.90
20315;DHT22;10315;50.958;13.080;2023-08-08T02:00:23;10.30;99.90
20315;DHT22;10315;50.958;13.080;2023-08-08T02:10:26;10.20;99.90
20315;DHT22;10315;50.958;13.080;2023-08-08T02:20:28;10.20;99.90
20315;DHT22;10315;50.958;13.080;2023-08-08T02:30:31;10.20;99.90
20315;DHT22;10315;50.958;13.080;2023-08-08T02:40:33;10.10;99.90
20315;DHT22;10315;50.958;13.080;2023-08-08T02:50:36;10.00;99.90
20315;DHT22;10315;50.958;13.080;2023-08-08T03:00:37;10.10;99.90
20315;DHT22;10315;50.958;13.080;2023-08-08T03:10:40;9.90;99.90
20315;DHT22;10315;50.958;13.080;2023-08-08T03:20:42;9.70;99.90
20315;DHT22;10315;50.958;13.080;2023-08-08T03:30:49;9.60;99.90
20315;DHT22;10315;50.958;13.080;2023-08-08T03:40:51;9.60;99.90
20315;DHT22;10315;50.958;13.080;2023-08-08T03:50:54;9.50;99.90
20315;DHT22;10315;50.958;13.080;2023-08-08T04:00:55;9.40;99.90
20315;DHT22;10315;50.958;13.080;2023-08-08T04:10:58;9.50;99.90
20315;DHT22;10315;50.958;13.080;2023-08-08T04:21:00;9.60;99.90
20315;DHT22;10315;50.958;13.080;2023-08-08T04:31:10;9.90;99.90
20315;DHT22;10315;50.958;13.080;2023-08-08T04:41:12;10.00;99.90
20315;DHT22;10315;50.958;13.080;2023-08-08T04:51:15;10.00;99.90
20315;DHT22;10315;50.958;13.080;2023-08-08T05:01:17;10.20;99.90
20315;DHT22;10315;50.958;13.080;2023-08-08T05:11:22;11.10;99.90
20315;DHT22;10315;50.958;13.080;2023-08-08T05:21:23;11.30;99.90
20315;DHT22;10315;50.958;13.080;2023-08-08T05:31:26;11.50;99.90
20315;DHT22;10315;50.958;13.080;2023-08-08T05:41:28;11.50;99.90
20315;DHT22;10315;50.958;13.080;2023-08-08T05:51:33;11.50;99.90
20315;DHT22;10315;50.958;13.080;2023-08-08T06:01:35;11.50;99.90
20315;DHT22;10315;50.958;13.080;2023-08-08T06:11:39;11.70;99.90
20315;DHT22;10315;50.958;13.080;2023-08-08T06:21:40;11.60;99.90
20315;DHT22;10315;50.958;13.080;2023-08-08T06:31:43;11.70;99.90
20315;DHT22;10315;50.958;13.080;2023-08-08T06:41:48;11.80;99.90
20315;DHT22;10315;50.958;13.080;2023-08-08T06:51:51;12.00;99.90
20315;DHT22;10315;50.958;13.080;2023-08-08T07:01:56;12.00;99.90
20315;DHT22;10315;50.958;13.080;2023-08-08T07:11:59;11.80;99.90
20315;DHT22;10315;50.958;13.080;2023-08-08T07:22:01;12.20;99.90
20315;DHT22;10315;50.958;13.080;2023-08-08T07:32:05;12.60;99.90
20315;DHT22;10315;50.958;13.080;2023-08-08T07:42:07;13.10;99.90
20315;DHT22;10315;50.958;13.080;2023-08-08T07:52:10;13.80;99.90
20315;DHT22;10315;50.958;13.080;2023-08-08T08:02:12;14.10;99.90
20315;DHT22;10315;50.958;13.080;2023-08-08T08:12:15;13.80;99.90
20315;DHT22;10315;50.958;13.080;2023-08-08T08:22:16;14.40;99.90
20315;DHT22;10315;50.958;13.080;2023-08-08T08:32:21;15.30;99.90
20315;DHT22;10315;50.958;13.080;2023-08-08T08:42:24;14.60;99.90
20315;DHT22;10315;50.958;13.080;2023-08-08T08:52:28;14.90;99.90
20315;DHT22;10315;50.958;13.080;2023-08-08T09:02:29;14.70;99.90
20315;DHT22;10315;50.958;13.080;2023-08-08T09:12:33;15.60;99.90
20315;DHT22;10315;50.958;13.080;2023-08-08T09:22:36;16.20;99.90
20315;DHT22;10315;50.958;13.080;2023-08-08T09:32:40;16.00;99.90
20315;DHT22;10315;50.958;13.080;2023-08-08T09:42:45;15.50;99.90
20315;DHT22;10315;50.958;13.080;2023-08-08T09:52:48;15.40;99.90
20315;DHT22;10315;50.958;13.080;2023-08-08T10:02:54;15.70;99.90
20315;DHT22;10315;50.958;13.080;2023-08-08T10:12:57;15.60;99.90
20315;DHT22;10315;50.958;13.080;2023-08-08T10:23:02;15.60;99.90
20315;DHT22;10315;50.958;13.080;2023-08-08T10:33:05;16.00;99.90
20315;DHT22;10315;50.958;13.080;2023-08-08T10:43:11;16.90;99.90
20315;DHT22;10315;50.958;13.080;2023-08-08T10:53:14;16.40;99.90
20315;DHT22;10315;50.958;13.080;2023-08-08T11:03:16;16.70;99.90
20315;DHT22;10315;50.958;13.080;2023-08-08T11:13:20;17.70;99.90
20315;DHT22;10315;50.958;13.080;2023-08-08T11:23:21;18.80;99.90
20315;DHT22;10315;50.958;13.080;2023-08-08T11:33:25;19.50;99.90
20315;DHT22;10315;50.958;13.080;2023-08-08T11:43:27;19.40;99.90
20315;DHT22;10315;50.958;13.080;2023-08-08T11:53:30;18.40;99.90
20315;DHT22;10315;50.958;13.080;2023-08-08T12:03:32;18.50;99.90
20315;DHT22;10315;50.958;13.080;2023-08-08T12:13:37;19.50;99.90
20315;DHT22;10315;50.958;13.080;2023-08-08T12:23:40;19.30;99.90
20315;DHT22;10315;50.958;13.080;2023-08-08T12:33:43;19.00;99.90
20315;DHT22;10315;50.958;13.080;2023-08-08T12:43:46;19.10;99.90
20315;DHT22;10315;50.958;13.080;2023-08-08T12:53:49;19.50;99.90
20315;DHT22;10315;50.958;13.080;2023-08-08T13:03:51;18.20;99.90
20315;DHT22;10315;50.958;13.080;2023-08-08T13:13:54;19.30;99.90
20315;DHT22;10315;50.958;13.080;2023-08-08T13:23:56;18.10;99.90
20315;DHT22;10315;50.958;13.080;2023-08-08T13:33:59;16.20;99.90
20315;DHT22;10315;50.958;13.080;2023-08-08T13:44:00;16.90;99.90
20315;DHT22;10315;50.958;13.080;2023-08-08T13:54:04;16.60;99.90
20315;DHT22;10315;50.958;13.080;2023-08-08T14:04:05;17.40;99.90
20315;DHT22;10315;50.958;13.080;2023-08-08T14:14:08;17.50;99.90
20315;DHT22;10315;50.958;13.080;2023-08-08T14:24:10;16.80;99.90
20315;DHT22;10315;50.958;13.080;2023-08-08T14:34:14;16.50;99.90
20315;DHT22;10315;50.958;13.080;2023-08-08T14:44:16;17.80;99.90
20315;DHT22;10315;50.958;13.080;2023-08-08T14:54:19;17.40;99.90
20315;DHT22;10315;50.958;13.080;2023-08-08T15:04:24;17.30;99.90
20315;DHT22;10315;50.958;13.080;2023-08-08T15:14:27;17.00;99.90
20315;DHT22;10315;50.958;13.080;2023-08-08T15:24:29;15.20;99.90
20315;DHT22;10315;50.958;13.080;2023-08-08T15:34:32;14.10;99.90
20315;DHT22;10315;50.958;13.080;2023-08-08T15:44:33;14.40;99.90
20315;DHT22;10315;50.958;13.080;2023-08-08T15:54:36;14.40;99.90
20315;DHT22;10315;50.958;13.080;2023-08-08T16:04:38;14.40;99.90
20315;DHT22;10315;50.958;13.080;2023-08-08T16:14:41;14.00;99.90
20315;DHT22;10315;50.958;13.080;2023-08-08T16:24:42;13.40;99.90
20315;DHT22;10315;50.958;13.080;2023-08-08T16:34:45;13.20;99.90
20315;DHT22;10315;50.958;13.080;2023-08-08T16:44:47;13.20;99.90
20315;DHT22;10315;50.958;13.080;2023-08-08T16:54:50;13.20;99.90
20315;DHT22;10315;50.958;13.080;2023-08-08T17:04:52;13.30;99.90
20315;DHT22;10315;50.958;13.080;2023-08-08T17:14:55;13.20;99.90
20315;DHT22;10315;50.958;13.080;2023-08-08T17:24:56;13.20;99.90
20315;DHT22;10315;50.958;13.080;2023-08-08T17:35:03;13.20;99.90
20315;DHT22;10315;50.958;13.080;2023-08-08T17:45:08;13.40;99.90
20315;DHT22;10315;50.958;13.080;2023-08-08T17:55:15;13.50;99.90
20315;DHT22;10315;50.958;13.080;2023-08-08T18:05:18;13.50;99.90
20315;DHT22;10315;50.958;13.080;2023-08-08T18:15:21;13.40;99.90
20315;DHT22;10315;50.958;13.080;2023-08-08T18:25:23;13.30;99.90
20315;DHT22;10315;50.958;13.080;2023-08-08T18:35:26;13.00;99.90
20315;DHT22;10315;50.958;13.080;2023-08-08T18:45:28;12.90;99.90
20315;DHT22;10315;50.958;13.080;2023-08-08T18:55:31;12.60;99.90
20315;DHT22;10315;50.958;13.080;2023-08-08T19:05:32;12.80;99.90
20315;DHT22;10315;50.958;13.080;2023-08-08T19:15:36;13.00;99.90
20315;DHT22;10315;50.958;13.080;2023-08-08T19:25:37;13.00;99.90
20315;DHT22;10315;50.958;13.080;2023-08-08T19:35:43;13.00;99.90
20315;DHT22;10315;50.958;13.080;2023-08-08T19:45:45;13.10;99.90
20315;DHT22;10315;50.958;13.080;2023-08-08T19:55:48;13.10;99.90
20315;DHT22;10315;50.958;13.080;2023-08-08T20:05:50;13.30;99.90
20315;DHT22;10315;50.958;13.080;2023-08-08T20:15:53;13.40;99.90
20315;DHT22;10315;50.958;13.080;2023-08-08T20:25:54;13.50;99.90
20315;DHT22;10315;50.958;13.080;2023-08-08T20:35:57;13.60;99.90
20315;DHT22;10315;50.958;13.080;2023-08-08T20:45:59;13.60;99.90
20315;DHT22;10315;50.958;13.080;2023-08-08T20:56:03;13.50;99.90
20315;DHT22;10315;50.958;13.080;2023-08-08T21:06:04;13.40;99.90
20315;DHT22;10315;50.958;13.080;2023-08-08T21:16:07;13.00;99.90
20315;DHT22;10315;50.958;13.080;2023-08-08T21:26:10;12.60;99.90
20315;DHT22;10315;50.958;13.080;2023-08-08T21:36:13;12.20;99.90
20315;DHT22;10315;50.958;13.080;2023-08-08T21:46:19;12.20;99.90
20315;DHT22;10315;50.958;13.080;2023-08-08T21:56:22;12.20;99.90
20315;DHT22;10315;50.958;13.080;2023-08-08T22:06:24;12.20;99.90
20315;DHT22;10315;50.958;13.080;2023-08-08T22:16:27;12.20;99.90
20315;DHT22;10315;50.958;13.080;2023-08-08T22:26:29;12.10;99.90
20315;DHT22;10315;50.958;13.080;2023-08-08T22:36:32;12.30;99.90
20315;DHT22;10315;50.958;13.080;2023-08-08T22:46:33;12.40;99.90
20315;DHT22;10315;50.958;13.080;2023-08-08T22:56:36;12.30;99.90
20315;DHT22;10315;50.958;13.080;2023-08-08T23:06:41;12.40;99.90
20315;DHT22;10315;50.958;13.080;2023-08-08T23:16:44;12.10;99.90
20315;DHT22;10315;50.958;13.080;2023-08-08T23:26:46;11.90;99.90
20315;DHT22;10315;50.958;13.080;2023-08-08T23:36:49;12.00;99.90
20315;DHT22;10315;50.958;13.080;2023-08-08T23:46:51;12.20;99.90
20315;DHT22;10315;50.958;13.080;2023-08-08T23:56:54;12.20;99.90
